createdAt,value
2023-01-25T00:01:21.915Z,6.20
2023-01-25T00:03:48.287Z,5.78
2023-01-25T00:06:14.615Z,6.40
2023-01-25T00:08:41.033Z,5.77
2023-01-25T00:11:07.455Z,6.35
2023-01-25T00:13:33.817Z,6.25
2023-01-25T00:16:04.752Z,5.93
2023-01-25T00:18:31.424Z,6.15
2023-01-25T00:20:57.986Z,6.60
2023-01-25T00:23:24.347Z,6.97
2023-01-25T00:25:57.888Z,6.78
2023-01-25T00:28:25.106Z,6.60
2023-01-25T00:30:51.907Z,6.10
2023-01-25T00:33:18.211Z,7.10
2023-01-25T00:35:45.285Z,6.70
2023-01-25T00:38:29.120Z,6.40
2023-01-25T00:40:55.549Z,6.93
2023-01-25T00:43:22.127Z,6.47
2023-01-25T00:45:48.495Z,5.90
2023-01-25T00:48:14.864Z,6.35
2023-01-25T00:50:41.241Z,5.95
2023-01-25T00:53:07.612Z,6.18
2023-01-25T00:55:34.058Z,6.32
2023-01-25T00:58:00.411Z,6.80
2023-01-25T01:00:26.788Z,6.75
2023-01-25T01:02:53.144Z,5.80
2023-01-25T01:05:19.505Z,6.25
2023-01-25T01:07:49.422Z,6.90
2023-01-25T01:10:15.901Z,7.03
2023-01-25T01:12:42.258Z,6.47
2023-01-25T01:15:09.550Z,6.65
2023-01-25T01:17:36.104Z,6.65
2023-01-25T01:20:02.464Z,6.72
2023-01-25T01:22:28.823Z,6.70
2023-01-25T01:24:55.169Z,6.20
2023-01-25T01:27:21.507Z,6.85
2023-01-25T01:29:47.861Z,6.38
2023-01-25T01:32:14.319Z,6.88
2023-01-25T01:34:40.743Z,7.03
2023-01-25T01:37:07.093Z,7.05
2023-01-25T01:39:33.482Z,7.13
2023-01-25T01:41:59.830Z,7.00
2023-01-25T01:44:49.228Z,7.18
2023-01-25T01:47:18.069Z,7.30
2023-01-25T01:49:51.694Z,7.05
2023-01-25T01:52:23.527Z,6.68
2023-01-25T01:54:57.449Z,7.72
2023-01-25T01:57:48.600Z,6.63
2023-01-25T02:00:23.061Z,6.77
2023-01-25T02:02:51.171Z,7.10
2023-01-25T02:05:22.614Z,6.93
2023-01-25T02:07:52.299Z,6.40
2023-01-25T02:10:20.212Z,6.95
2023-01-25T02:12:48.119Z,6.57
2023-01-25T02:15:14.673Z,6.05
2023-01-25T02:17:42.305Z,6.78
2023-01-25T02:20:22.920Z,7.55
2023-01-25T02:22:52.059Z,7.55
2023-01-25T02:25:18.641Z,6.60
2023-01-25T02:27:53.012Z,6.70
2023-01-25T02:30:19.554Z,6.75
2023-01-25T02:32:45.940Z,6.85
2023-01-25T02:35:19.863Z,6.80
2023-01-25T02:37:46.565Z,6.37
2023-01-25T02:40:12.980Z,6.72
2023-01-25T02:42:42.400Z,6.57
2023-01-25T02:45:14.602Z,6.20
2023-01-25T02:47:40.966Z,6.22
2023-01-25T02:50:08.303Z,6.47
2023-01-25T02:52:34.720Z,6.82
2023-01-25T02:55:01.125Z,6.85
2023-01-25T02:57:27.458Z,6.32
2023-01-25T02:59:53.864Z,6.78
2023-01-25T03:02:20.220Z,6.83
2023-01-25T03:04:46.655Z,6.20
2023-01-25T03:07:13.336Z,5.82
2023-01-25T03:09:39.685Z,6.50
2023-01-25T03:12:06.296Z,6.35
2023-01-25T03:14:32.833Z,5.87
2023-01-25T03:16:59.255Z,6.32
2023-01-25T03:19:25.621Z,6.35
2023-01-25T03:21:51.993Z,6.80
2023-01-25T03:24:18.424Z,6.43
2023-01-25T03:27:20.063Z,6.27
2023-01-25T03:29:46.437Z,6.30
2023-01-25T03:32:12.861Z,6.40
2023-01-25T03:34:39.268Z,6.60
2023-01-25T03:37:05.659Z,7.10
2023-01-25T03:39:32.002Z,6.23
2023-01-25T03:41:58.424Z,6.00
2023-01-25T03:44:24.796Z,6.85
2023-01-25T03:46:51.225Z,6.85
2023-01-25T03:49:18.558Z,6.00
2023-01-25T03:51:44.970Z,5.63
2023-01-25T03:54:11.347Z,6.13
2023-01-25T03:56:38.626Z,5.82
2023-01-25T03:59:05.309Z,5.40
2023-01-25T04:01:31.904Z,6.15
2023-01-25T04:03:58.258Z,5.67
2023-01-25T04:06:24.621Z,4.88
2023-01-25T04:08:50.978Z,5.20
2023-01-25T04:11:17.357Z,5.68
2023-01-25T04:13:43.691Z,6.28
2023-01-25T04:16:13.778Z,6.87
2023-01-25T04:18:40.749Z,6.32
2023-01-25T04:21:07.244Z,6.15
2023-01-25T04:23:33.800Z,5.10
2023-01-25T04:26:09.290Z,5.57
2023-01-25T04:28:36.069Z,5.20
2023-01-25T04:31:03.656Z,5.55
2023-01-25T04:33:30.204Z,5.65
2023-01-25T04:35:56.768Z,5.97
2023-01-25T04:38:23.495Z,6.25
2023-01-25T04:40:51.744Z,5.60
2023-01-25T04:43:19.677Z,4.90
2023-01-25T04:45:46.761Z,5.90
2023-01-25T04:48:13.805Z,5.60
2023-01-25T04:50:41.726Z,5.95
2023-01-25T04:53:09.404Z,6.00
2023-01-25T04:55:35.864Z,6.10
2023-01-25T04:58:03.540Z,5.65
2023-01-25T05:00:30.902Z,6.15
2023-01-25T05:02:57.269Z,5.90
2023-01-25T05:05:23.632Z,5.67
2023-01-25T05:07:49.993Z,5.25
2023-01-25T05:10:16.385Z,5.53
2023-01-25T05:12:43.373Z,5.40
2023-01-25T05:15:10.428Z,5.68
2023-01-25T05:17:37.066Z,4.77
2023-01-25T05:20:03.813Z,5.82
2023-01-25T05:22:30.442Z,5.47
2023-01-25T05:24:58.993Z,5.45
2023-01-25T05:27:25.401Z,4.55
2023-01-25T05:29:51.744Z,4.30
2023-01-25T05:32:22.937Z,4.40
2023-01-25T05:34:49.517Z,4.65
2023-01-25T05:37:18.127Z,4.45
2023-01-25T05:39:44.847Z,5.38
2023-01-25T05:42:16.323Z,4.87
2023-01-25T05:44:45.302Z,5.03
2023-01-25T05:47:14.228Z,5.15
2023-01-25T05:49:40.609Z,4.90
2023-01-25T05:52:06.964Z,4.85
2023-01-25T05:54:33.360Z,5.20
2023-01-25T05:57:00.139Z,5.47
2023-01-25T05:59:26.538Z,4.88
2023-01-25T06:01:52.924Z,5.30
2023-01-25T06:04:19.318Z,5.13
2023-01-25T06:06:45.777Z,4.93
2023-01-25T06:09:13.415Z,5.35
2023-01-25T06:11:42.748Z,5.05
2023-01-25T06:14:09.136Z,4.75
2023-01-25T06:16:35.576Z,4.93
2023-01-25T06:19:01.974Z,4.80
2023-01-25T06:21:28.370Z,5.28
2023-01-25T06:23:55.058Z,5.55
2023-01-25T06:26:21.674Z,5.70
2023-01-25T06:28:48.258Z,4.50
2023-01-25T06:31:17.239Z,4.43
2023-01-25T06:33:47.233Z,4.57
2023-01-25T06:36:15.609Z,4.55
2023-01-25T06:38:42.745Z,5.18
2023-01-25T06:41:12.147Z,4.82
2023-01-25T06:43:39.105Z,4.43
2023-01-25T06:46:07.818Z,4.32
2023-01-25T06:48:34.983Z,4.97
2023-01-25T06:51:07.266Z,4.72
2023-01-25T06:53:37.368Z,4.50
2023-01-25T06:56:09.990Z,4.43
2023-01-25T06:58:37.742Z,4.13
2023-01-25T07:01:07.701Z,4.53
2023-01-25T07:03:34.547Z,5.40
2023-01-25T07:06:02.893Z,4.53
2023-01-25T07:08:29.455Z,4.00
2023-01-25T07:11:07.114Z,4.28
2023-01-25T07:13:34.299Z,4.05
2023-01-25T07:16:06.570Z,4.05
2023-01-25T07:18:33.992Z,3.88
2023-01-25T07:21:11.762Z,3.73
2023-01-25T07:23:38.692Z,3.80
2023-01-25T07:26:06.582Z,4.38
2023-01-25T07:28:33.153Z,4.40
2023-01-25T07:31:07.033Z,4.57
2023-01-25T07:33:34.213Z,3.33
2023-01-25T07:36:05.531Z,3.75
2023-01-25T07:38:31.964Z,4.40
2023-01-25T07:40:58.350Z,4.13
2023-01-25T07:43:25.255Z,4.18
2023-01-25T07:45:52.171Z,4.23
2023-01-25T07:48:20.094Z,3.03
2023-01-25T07:50:49.438Z,3.65
2023-01-25T07:53:16.927Z,3.22
2023-01-25T07:55:43.349Z,3.88
2023-01-25T07:58:12.944Z,3.93
2023-01-25T08:00:40.314Z,3.75
2023-01-25T08:03:08.003Z,3.53
2023-01-25T08:05:34.397Z,4.25
2023-01-25T08:08:00.811Z,4.78
2023-01-25T08:10:27.185Z,3.50
2023-01-25T08:12:53.521Z,4.53
2023-01-25T08:15:19.852Z,4.10
2023-01-25T08:17:46.279Z,4.03
2023-01-25T08:20:13.907Z,4.38
2023-01-25T08:22:40.311Z,4.30
2023-01-25T08:25:07.707Z,4.05
2023-01-25T08:27:34.282Z,4.03
2023-01-25T08:30:00.689Z,3.78
2023-01-25T08:32:27.064Z,4.18
2023-01-25T08:34:53.613Z,4.13
2023-01-25T08:37:20.011Z,4.35
2023-01-25T08:39:46.425Z,4.15
2023-01-25T08:42:12.777Z,3.65
2023-01-25T08:44:39.156Z,3.95
2023-01-25T08:47:05.565Z,3.73
2023-01-25T08:49:34.387Z,3.35
2023-01-25T08:52:00.909Z,3.65
2023-01-25T08:54:27.280Z,3.35
2023-01-25T08:56:53.673Z,3.70
2023-01-25T08:59:20.021Z,3.60
2023-01-25T09:01:46.461Z,3.35
2023-01-25T09:04:12.796Z,3.75
2023-01-25T09:06:39.241Z,4.25
2023-01-25T09:09:05.791Z,3.92
2023-01-25T09:11:34.483Z,3.00
2023-01-25T09:14:00.833Z,3.65
2023-01-25T09:16:30.558Z,3.70
2023-01-25T09:18:59.129Z,3.42
2023-01-25T09:21:25.582Z,3.78
2023-01-25T09:24:05.480Z,3.60
2023-01-25T09:26:34.752Z,3.22
2023-01-25T09:29:01.197Z,3.00
2023-01-25T09:31:27.865Z,3.13
2023-01-25T09:33:54.530Z,3.35
2023-01-25T09:36:21.230Z,3.17
2023-01-25T09:38:48.435Z,3.35
2023-01-25T09:41:36.912Z,3.58
2023-01-25T09:44:22.076Z,3.60
2023-01-25T09:47:36.605Z,3.85
2023-01-25T09:50:33.203Z,4.00
2023-01-25T09:53:24.248Z,3.10
2023-01-25T09:56:09.524Z,3.22
2023-01-25T09:58:42.998Z,2.95
2023-01-25T10:01:37.712Z,2.92
2023-01-25T10:04:13.035Z,2.77
2023-01-25T10:06:46.089Z,2.65
2023-01-25T10:09:22.675Z,2.67
2023-01-25T10:11:49.147Z,2.55
2023-01-25T10:14:18.185Z,2.80
2023-01-25T10:16:47.372Z,2.70
2023-01-25T10:19:54.414Z,2.80
2023-01-25T10:22:25.034Z,2.78
2023-01-25T10:25:00.854Z,2.40
2023-01-25T10:27:51.632Z,2.80
2023-01-25T10:30:24.815Z,2.63
2023-01-25T10:32:56.129Z,2.85
2023-01-25T10:35:35.156Z,2.85
2023-01-25T10:38:16.096Z,2.45
2023-01-25T10:40:48.551Z,2.80
2023-01-25T10:43:20.161Z,2.70
2023-01-25T10:45:48.094Z,2.55
2023-01-25T10:48:24.717Z,2.65
2023-01-25T10:50:53.716Z,2.90
2023-01-25T10:53:39.303Z,2.92
2023-01-25T10:56:21.014Z,3.07
2023-01-25T10:58:50.177Z,2.80
2023-01-25T11:01:36.474Z,3.17
2023-01-25T11:04:03.135Z,3.00
2023-01-25T11:06:38.628Z,3.30
2023-01-25T11:09:29.762Z,3.17
2023-01-25T11:11:58.822Z,3.25
2023-01-25T11:14:27.816Z,2.85
2023-01-25T11:16:56.049Z,3.13
2023-01-25T11:19:39.007Z,3.00
2023-01-25T11:22:20.517Z,3.03
2023-01-25T11:24:47.604Z,2.33
2023-01-25T11:27:20.195Z,3.10
2023-01-25T11:30:08.460Z,3.20
2023-01-25T11:32:35.303Z,3.22
2023-01-25T11:35:02.380Z,2.83
2023-01-25T11:37:38.698Z,3.15
2023-01-25T11:40:34.089Z,3.05
2023-01-25T11:43:16.540Z,2.67
2023-01-25T11:45:45.867Z,2.60
2023-01-25T11:48:43.406Z,3.27
2023-01-25T11:51:25.852Z,3.22
2023-01-25T11:54:21.204Z,2.70
2023-01-25T11:56:58.416Z,3.15
2023-01-25T11:59:51.793Z,2.30
2023-01-25T12:02:50.447Z,2.80
2023-01-25T12:05:41.298Z,2.70
2023-01-25T12:08:31.465Z,2.92
2023-01-25T12:11:29.475Z,3.03
2023-01-25T12:14:14.327Z,2.72
2023-01-25T12:17:06.118Z,2.70
2023-01-25T12:20:04.149Z,3.05
2023-01-25T12:23:00.083Z,3.10
2023-01-25T12:26:02.561Z,2.92
2023-01-25T12:28:43.150Z,3.38
2023-01-25T12:31:16.087Z,3.53
2023-01-25T12:33:52.388Z,3.55
2023-01-25T12:36:40.425Z,3.88
2023-01-25T12:39:13.955Z,3.95
2023-01-25T12:42:04.144Z,3.85
2023-01-25T12:44:42.231Z,3.30
2023-01-25T12:47:23.555Z,3.40
2023-01-25T12:50:02.466Z,3.28
2023-01-25T12:52:35.943Z,3.80
2023-01-25T12:55:05.746Z,3.85
2023-01-25T12:57:50.653Z,3.83
2023-01-25T13:00:32.875Z,3.33
2023-01-25T13:03:08.072Z,3.38
2023-01-25T13:06:00.646Z,3.42
2023-01-25T13:08:48.946Z,3.03
2023-01-25T13:11:32.842Z,3.43
2023-01-25T13:14:17.848Z,2.67
2023-01-25T13:17:09.258Z,3.10
2023-01-25T13:19:36.400Z,3.17
2023-01-25T13:22:02.941Z,3.15
2023-01-25T13:24:31.652Z,3.47
2023-01-25T13:26:59.446Z,3.45
2023-01-25T13:29:31.737Z,3.55
2023-01-25T13:31:59.975Z,3.53
2023-01-25T13:34:42.400Z,5.35
2023-01-25T13:37:29.968Z,4.17
2023-01-25T13:39:57.870Z,6.57
2023-01-25T13:42:27.583Z,4.10
2023-01-25T13:44:57.025Z,4.30
2023-01-25T13:47:27.067Z,4.30
2023-01-25T13:49:59.515Z,4.10
2023-01-25T13:52:27.887Z,3.80
2023-01-25T13:54:57.346Z,3.60
2023-01-25T13:57:30.876Z,3.60
2023-01-25T14:00:10.617Z,3.90
2023-01-25T14:02:39.575Z,4.00
2023-01-25T14:05:07.839Z,3.85
2023-01-25T14:07:37.183Z,3.65
2023-01-25T14:10:11.481Z,3.70
2023-01-25T14:12:41.010Z,3.35
2023-01-25T14:15:17.703Z,3.53
2023-01-25T14:17:44.267Z,3.20
2023-01-25T14:20:19.919Z,2.95
2023-01-25T14:22:50.645Z,3.50
2023-01-25T14:25:19.482Z,3.95
2023-01-25T14:27:50.595Z,3.90
2023-01-25T14:30:32.271Z,4.47
2023-01-25T14:33:15.281Z,4.20
2023-01-25T14:35:54.245Z,4.03
2023-01-25T14:38:39.413Z,4.25
2023-01-25T14:41:14.828Z,3.93
2023-01-25T14:43:43.515Z,3.83
2023-01-25T14:46:26.820Z,4.38
2023-01-25T14:49:11.570Z,3.95
2023-01-25T14:51:45.176Z,4.20
2023-01-25T14:54:23.871Z,4.17
2023-01-25T14:56:53.655Z,4.55
2023-01-25T14:59:39.170Z,4.07
2023-01-25T15:02:27.858Z,5.15
2023-01-25T15:05:11.113Z,3.97
2023-01-25T15:07:47.967Z,3.43
2023-01-25T15:10:26.909Z,3.90
2023-01-25T15:13:11.667Z,3.42
2023-01-25T15:15:58.268Z,4.18
2023-01-25T15:18:43.857Z,4.18
2023-01-25T15:21:17.417Z,4.33
2023-01-25T15:23:47.023Z,4.90
2023-01-25T15:26:25.102Z,5.30
2023-01-25T15:28:53.850Z,3.85
2023-01-25T15:31:28.614Z,4.30
2023-01-25T15:33:57.084Z,5.10
2023-01-25T15:36:23.591Z,4.55
2023-01-25T15:38:50.224Z,4.30
2023-01-25T15:41:18.543Z,5.07
2023-01-25T15:43:46.280Z,4.40
2023-01-25T15:46:19.458Z,4.33
2023-01-25T15:48:46.910Z,4.53
2023-01-25T15:51:13.519Z,5.10
2023-01-25T15:53:40.038Z,4.63
2023-01-25T15:56:17.349Z,4.22
2023-01-25T15:58:54.426Z,4.57
2023-01-25T16:01:26.990Z,4.22
2023-01-25T16:03:58.327Z,5.75
2023-01-25T16:06:39.884Z,5.13
2023-01-25T16:09:19.841Z,4.55
2023-01-25T16:11:47.977Z,4.43
2023-01-25T16:14:14.629Z,4.90
2023-01-25T16:16:44.867Z,4.38
2023-01-25T16:19:17.650Z,5.68
2023-01-25T16:21:44.081Z,4.25
2023-01-25T16:24:11.284Z,8.40
2023-01-25T16:26:43.460Z,5.43
2023-01-25T16:29:11.162Z,5.03
2023-01-25T16:31:38.044Z,7.70
2023-01-25T16:34:04.519Z,6.82
2023-01-25T16:36:31.512Z,7.37
2023-01-25T16:39:09.648Z,6.75
2023-01-25T16:41:36.196Z,7.35
2023-01-25T16:44:02.555Z,5.30
2023-01-25T16:46:28.956Z,5.38
2023-01-25T16:48:57.290Z,4.37
2023-01-25T16:51:26.505Z,4.70
2023-01-25T16:53:58.387Z,4.65
2023-01-25T16:56:27.611Z,4.88
2023-01-25T16:58:55.492Z,4.85
2023-01-25T17:01:24.350Z,4.03
2023-01-25T17:03:51.401Z,3.72
2023-01-25T17:06:29.961Z,4.40
2023-01-25T17:09:00.296Z,5.63
2023-01-25T17:11:27.041Z,6.65
2023-01-25T17:13:56.076Z,5.67
2023-01-25T17:16:25.099Z,5.40
2023-01-25T17:18:56.714Z,4.90
2023-01-25T17:21:23.845Z,6.70
2023-01-25T17:23:50.709Z,5.00
2023-01-25T17:26:19.017Z,5.70
2023-01-25T17:28:45.740Z,5.47
2023-01-25T17:31:27.558Z,5.53
2023-01-25T17:33:55.358Z,4.93
2023-01-25T17:36:22.222Z,5.00
2023-01-25T17:38:48.954Z,4.93
2023-01-25T17:41:16.985Z,6.13
2023-01-25T17:43:43.534Z,5.75
2023-01-25T17:46:26.000Z,6.45
2023-01-25T17:48:53.429Z,4.82
2023-01-25T17:51:21.494Z,5.10
2023-01-25T17:53:48.749Z,5.70
2023-01-25T17:56:15.308Z,5.07
2023-01-25T17:58:41.956Z,5.32
2023-01-25T18:01:19.556Z,5.40
2023-01-25T18:03:47.121Z,5.50
2023-01-25T18:06:16.879Z,5.43
2023-01-25T18:08:45.869Z,4.72
2023-01-25T18:11:15.414Z,4.72
2023-01-25T18:13:44.010Z,4.55
2023-01-25T18:16:10.704Z,4.30
2023-01-25T18:18:39.149Z,4.22
2023-01-25T18:21:11.409Z,4.35
2023-01-25T18:23:38.720Z,3.95
2023-01-25T18:26:06.705Z,4.03
2023-01-25T18:28:33.075Z,3.57
2023-01-25T18:31:02.236Z,3.63
2023-01-25T18:33:28.723Z,4.45
2023-01-25T18:35:57.374Z,4.13
2023-01-25T18:38:23.830Z,4.28
2023-01-25T18:40:50.182Z,3.77
2023-01-25T18:43:17.061Z,3.88
2023-01-25T18:45:44.203Z,3.38
2023-01-25T18:48:13.258Z,3.85
2023-01-25T18:50:41.390Z,3.65
2023-01-25T18:53:09.912Z,3.40
2023-01-25T18:55:37.535Z,4.05
2023-01-25T18:58:05.188Z,3.90
2023-01-25T19:00:34.674Z,3.85
2023-01-25T19:03:01.131Z,3.90
2023-01-25T19:05:27.547Z,3.93
2023-01-25T19:07:54.270Z,3.03
2023-01-25T19:10:20.721Z,3.45
2023-01-25T19:12:47.129Z,4.25
2023-01-25T19:15:13.687Z,3.20
2023-01-25T19:17:40.102Z,3.83
2023-01-25T19:20:06.774Z,3.53
2023-01-25T19:22:33.156Z,3.47
2023-01-25T19:24:59.565Z,3.25
2023-01-25T19:27:26.797Z,4.32
2023-01-25T19:29:53.336Z,3.60
2023-01-25T19:32:19.751Z,3.63
2023-01-25T19:34:46.117Z,2.60
2023-01-25T19:37:12.479Z,3.53
2023-01-25T19:39:38.838Z,3.10
2023-01-25T19:42:06.706Z,2.67
2023-01-25T19:44:33.054Z,3.08
2023-01-25T19:46:59.486Z,3.00
2023-01-25T19:49:25.872Z,3.05
2023-01-25T19:51:54.913Z,2.90
2023-01-25T19:54:22.935Z,3.17
2023-01-25T19:56:50.121Z,3.50
2023-01-25T19:59:19.791Z,3.88
2023-01-25T20:01:46.758Z,3.38
2023-01-25T20:04:15.969Z,3.45
2023-01-25T20:06:43.207Z,3.70
2023-01-25T20:09:13.859Z,4.00
2023-01-25T20:11:40.924Z,7.97
2023-01-25T20:14:07.970Z,5.22
2023-01-25T20:16:35.201Z,3.83
2023-01-25T20:19:02.415Z,3.10
2023-01-25T20:21:31.333Z,3.30
2023-01-25T20:24:02.411Z,2.70
2023-01-25T20:26:32.381Z,2.10
2023-01-25T20:29:00.202Z,1.67
2023-01-25T20:31:29.222Z,1.80
2023-01-25T20:33:59.152Z,1.83
2023-01-25T20:36:28.588Z,2.47
2023-01-25T20:38:55.056Z,2.22
2023-01-25T20:41:22.026Z,3.30
2023-01-25T20:43:54.039Z,3.27
2023-01-25T20:46:21.912Z,3.30
2023-01-25T20:48:48.872Z,2.70
2023-01-25T20:51:16.971Z,2.38
2023-01-25T20:53:45.043Z,2.03
2023-01-25T20:56:12.756Z,2.50
2023-01-25T20:58:39.187Z,2.35
2023-01-25T21:01:14.407Z,2.20
2023-01-25T21:03:40.973Z,1.98
2023-01-25T21:06:07.913Z,1.70
2023-01-25T21:08:34.523Z,2.53
2023-01-25T21:11:01.411Z,1.95
2023-01-25T21:13:31.345Z,1.70
2023-01-25T21:16:05.036Z,1.52
2023-01-25T21:18:32.312Z,2.17
2023-01-25T21:21:14.708Z,2.03
2023-01-25T21:23:44.764Z,1.63
2023-01-25T21:26:16.058Z,1.70
2023-01-25T21:28:43.138Z,1.38
2023-01-25T21:31:15.371Z,1.80
2023-01-25T21:33:42.401Z,2.40
2023-01-25T21:36:11.499Z,1.70
2023-01-25T21:38:39.379Z,1.50
2023-01-25T21:41:08.011Z,1.08
2023-01-25T21:43:55.018Z,1.20
2023-01-25T21:46:26.105Z,1.47
2023-01-25T21:49:15.182Z,1.40
2023-01-25T21:51:49.201Z,1.10
2023-01-25T21:54:24.079Z,2.17
2023-01-25T21:56:53.501Z,1.40
2023-01-25T21:59:20.174Z,1.13
2023-01-25T22:01:47.124Z,1.35
2023-01-25T22:04:15.575Z,1.40
2023-01-25T22:06:42.723Z,1.40
2023-01-25T22:09:09.835Z,1.52
2023-01-25T22:11:36.571Z,1.43
2023-01-25T22:14:03.206Z,1.38
2023-01-25T22:16:30.202Z,1.73
2023-01-25T22:18:56.977Z,1.50
2023-01-25T22:21:25.829Z,1.38
2023-01-25T22:23:52.860Z,1.13
2023-01-25T22:26:24.478Z,1.50
2023-01-25T22:28:52.216Z,1.42
2023-01-25T22:31:21.171Z,1.25
2023-01-25T22:33:48.665Z,2.10
2023-01-25T22:36:16.841Z,1.80
2023-01-25T22:38:43.452Z,1.50
2023-01-25T22:41:17.838Z,1.67
2023-01-25T22:43:44.639Z,1.50
2023-01-25T22:46:13.665Z,1.40
2023-01-25T22:48:40.071Z,1.27
2023-01-25T22:51:12.792Z,1.10
2023-01-25T22:53:39.196Z,1.25
2023-01-25T22:56:09.824Z,0.98
2023-01-25T22:58:37.678Z,1.08
2023-01-25T23:01:07.442Z,1.00
2023-01-25T23:03:33.872Z,1.30
2023-01-25T23:06:01.947Z,1.17
2023-01-25T23:08:33.726Z,1.45
2023-01-25T23:11:06.679Z,1.25
2023-01-25T23:13:33.583Z,1.20
2023-01-25T23:16:04.540Z,1.70
2023-01-25T23:18:50.071Z,1.33
2023-01-25T23:21:19.406Z,1.38
2023-01-25T23:23:46.708Z,1.52
2023-01-25T23:26:15.227Z,1.77
2023-01-25T23:28:42.629Z,1.90
2023-01-25T23:31:18.611Z,1.50
2023-01-25T23:33:56.127Z,1.60
2023-01-25T23:36:27.878Z,1.50
2023-01-25T23:38:55.736Z,1.67
2023-01-25T23:41:26.189Z,1.52
2023-01-25T23:43:53.018Z,1.60
2023-01-25T23:46:19.488Z,1.73
2023-01-25T23:48:46.798Z,1.30
2023-01-25T23:51:15.533Z,1.70
2023-01-25T23:53:42.595Z,1.38
2023-01-25T23:56:18.419Z,1.60
2023-01-25T23:58:45.142Z,1.48
